createdAt,value
2018-12-16T00:00:18.469Z,17.27
2018-12-16T00:02:55.910Z,19.05
2018-12-16T00:05:33.379Z,16.10
2018-12-16T00:08:08.678Z,16.80
2018-12-16T00:10:44.157Z,17.42
2018-12-16T00:13:19.862Z,17.30
2018-12-16T00:15:55.329Z,19.52
2018-12-16T00:18:30.581Z,17.25
2018-12-16T00:21:06.959Z,16.20
2018-12-16T00:23:42.406Z,18.95
2018-12-16T00:26:17.818Z,19.32
2018-12-16T00:28:53.184Z,13.58
2018-12-16T00:31:28.653Z,15.25
2018-12-16T00:34:04.040Z,14.07
2018-12-16T00:36:39.350Z,17.00
2018-12-16T00:39:14.900Z,18.52
2018-12-16T00:41:50.426Z,15.15
2018-12-16T00:44:25.960Z,16.70
2018-12-16T00:47:01.434Z,17.12
2018-12-16T00:49:36.789Z,17.73
2018-12-16T00:52:12.159Z,13.28
2018-12-16T00:54:47.549Z,14.10
2018-12-16T00:57:22.946Z,15.35
2018-12-16T00:59:58.393Z,15.60
2018-12-16T01:02:38.993Z,16.48
2018-12-16T01:05:14.666Z,14.70
2018-12-16T01:07:50.141Z,14.80
2018-12-16T01:10:25.526Z,16.52
2018-12-16T01:13:00.893Z,13.48
2018-12-16T01:15:36.342Z,18.55
2018-12-16T01:18:11.706Z,12.63
2018-12-16T01:20:47.354Z,16.17
2018-12-16T01:23:22.688Z,15.58
2018-12-16T01:25:58.114Z,16.17
2018-12-16T01:28:33.517Z,20.35
2018-12-16T01:31:08.927Z,15.48
2018-12-16T01:33:44.306Z,17.50
2018-12-16T01:36:19.784Z,20.15
2018-12-16T01:38:55.242Z,18.48
2018-12-16T01:41:31.038Z,18.95
2018-12-16T01:44:06.447Z,22.05
2018-12-16T01:46:41.719Z,19.40
2018-12-16T01:49:17.122Z,22.90
2018-12-16T01:51:52.553Z,22.27
2018-12-16T01:54:28.092Z,23.73
2018-12-16T01:57:03.998Z,24.32
2018-12-16T01:59:39.210Z,27.20
2018-12-16T02:02:14.574Z,24.35
2018-12-16T02:04:50.011Z,31.17
2018-12-16T02:07:25.467Z,25.20
2018-12-16T02:10:00.884Z,26.68
2018-12-16T02:12:36.339Z,26.77
2018-12-16T02:15:11.858Z,24.77
2018-12-16T02:17:47.291Z,25.62
2018-12-16T02:20:22.665Z,22.48
2018-12-16T02:22:58.074Z,31.52
2018-12-16T02:25:33.578Z,28.23
2018-12-16T02:28:08.978Z,28.45
2018-12-16T02:30:44.931Z,24.85
2018-12-16T02:33:20.399Z,25.62
2018-12-16T02:35:55.751Z,28.12
2018-12-16T02:38:31.199Z,27.55
2018-12-16T02:41:06.755Z,34.95
2018-12-16T02:43:42.090Z,29.20
2018-12-16T02:46:17.749Z,27.45
2018-12-16T02:48:52.999Z,34.98
2018-12-16T02:51:28.347Z,26.82
2018-12-16T02:54:03.771Z,25.23
2018-12-16T02:56:39.107Z,32.95
2018-12-16T02:59:14.489Z,29.40
2018-12-16T03:01:50.071Z,22.58
2018-12-16T03:04:25.439Z,26.90
2018-12-16T03:07:00.820Z,24.47
2018-12-16T03:09:36.897Z,25.15
2018-12-16T03:12:12.170Z,29.23
2018-12-16T03:14:47.748Z,29.05
2018-12-16T03:17:23.717Z,26.80
2018-12-16T03:19:59.325Z,31.52
2018-12-16T03:22:34.809Z,23.55
2018-12-16T03:25:10.195Z,31.75
2018-12-16T03:27:45.546Z,29.80
2018-12-16T03:30:23.271Z,36.00
2018-12-16T03:32:58.543Z,25.37
2018-12-16T03:35:34.338Z,26.35
2018-12-16T03:38:09.705Z,35.48
2018-12-16T03:40:45.130Z,29.55
2018-12-16T03:43:20.536Z,34.83
2018-12-16T03:45:55.882Z,27.82
2018-12-16T03:48:31.973Z,30.30
2018-12-16T03:51:07.359Z,33.63
2018-12-16T03:53:42.835Z,33.28
2018-12-16T03:56:18.251Z,26.73
2018-12-16T03:59:04.758Z,31.00
2018-12-16T04:01:41.209Z,26.50
2018-12-16T04:04:16.581Z,31.23
2018-12-16T04:06:51.847Z,27.40
2018-12-16T04:09:27.160Z,37.45
2018-12-16T04:12:02.454Z,31.40
2018-12-16T04:14:37.683Z,28.90
2018-12-16T04:17:12.994Z,30.72
2018-12-16T04:19:48.395Z,37.95
2018-12-16T04:22:23.962Z,32.48
2018-12-16T04:24:59.409Z,31.57
2018-12-16T04:27:34.793Z,31.55
2018-12-16T04:30:10.191Z,30.40
2018-12-16T04:32:45.692Z,29.45
2018-12-16T04:35:21.026Z,34.75
2018-12-16T04:37:56.388Z,31.20
2018-12-16T04:40:31.775Z,30.48
2018-12-16T04:43:07.079Z,29.18
2018-12-16T04:45:42.319Z,30.97
2018-12-16T04:48:17.727Z,31.85
2018-12-16T04:50:53.052Z,33.45
2018-12-16T04:53:35.128Z,32.30
2018-12-16T04:56:05.937Z,34.90
2018-12-16T04:58:41.383Z,32.73
2018-12-16T05:01:16.648Z,37.35
2018-12-16T05:03:52.191Z,30.45
2018-12-16T05:06:27.553Z,30.48
2018-12-16T05:09:03.832Z,37.63
2018-12-16T05:11:41.238Z,27.60
2018-12-16T05:14:17.173Z,32.42
2018-12-16T05:16:52.727Z,32.08
2018-12-16T05:19:28.196Z,29.23
2018-12-16T05:22:03.894Z,30.65
2018-12-16T05:24:39.422Z,34.10
2018-12-16T05:27:14.706Z,37.20
2018-12-16T05:29:50.138Z,30.80
2018-12-16T05:32:25.445Z,33.67
2018-12-16T05:35:00.919Z,33.63
2018-12-16T05:37:36.423Z,35.80
2018-12-16T05:40:11.829Z,33.25
2018-12-16T05:42:48.375Z,30.70
2018-12-16T05:45:23.986Z,31.25
2018-12-16T05:47:59.354Z,31.73
2018-12-16T05:50:34.634Z,29.90
2018-12-16T05:53:10.057Z,29.65
2018-12-16T05:55:45.383Z,33.50
2018-12-16T05:58:20.791Z,38.63
2018-12-16T06:00:56.298Z,34.92
2018-12-16T06:03:31.695Z,31.95
2018-12-16T06:06:07.059Z,29.10
2018-12-16T06:08:42.434Z,33.20
2018-12-16T06:11:18.119Z,34.15
2018-12-16T06:13:54.446Z,34.78
2018-12-16T06:16:29.839Z,32.48
2018-12-16T06:19:05.231Z,35.30
2018-12-16T06:21:41.179Z,37.60
2018-12-16T06:24:17.399Z,37.90
2018-12-16T06:26:53.295Z,42.75
2018-12-16T06:29:28.812Z,31.70
2018-12-16T06:32:04.387Z,35.15
2018-12-16T06:34:39.766Z,36.08
2018-12-16T06:37:15.055Z,33.85
2018-12-16T06:39:50.510Z,34.55
2018-12-16T06:42:26.019Z,33.63
2018-12-16T06:45:01.415Z,34.05
2018-12-16T06:47:37.612Z,35.50
2018-12-16T06:50:13.870Z,38.35
2018-12-16T06:52:50.145Z,32.13
2018-12-16T06:55:25.559Z,37.08
2018-12-16T06:58:00.894Z,35.83
2018-12-16T07:00:37.175Z,34.13
2018-12-16T07:03:13.367Z,34.58
2018-12-16T07:05:49.675Z,31.80
2018-12-16T07:08:25.629Z,36.33
2018-12-16T07:11:00.955Z,28.32
2018-12-16T07:13:36.250Z,27.80
2018-12-16T07:16:11.614Z,34.03
2018-12-16T07:18:47.008Z,31.57
2018-12-16T07:21:22.478Z,35.28
2018-12-16T07:23:57.790Z,35.40
2018-12-16T07:26:33.282Z,33.20
2018-12-16T07:29:08.620Z,36.33
2018-12-16T07:31:44.051Z,37.93
2018-12-16T07:34:19.415Z,37.50
2018-12-16T07:36:54.862Z,35.98
2018-12-16T07:39:30.313Z,33.18
2018-12-16T07:42:05.687Z,37.03
2018-12-16T07:44:41.072Z,39.23
2018-12-16T07:47:16.437Z,33.33
2018-12-16T07:49:51.986Z,31.25
2018-12-16T07:52:27.560Z,28.40
2018-12-16T07:55:03.143Z,34.08
2018-12-16T07:57:39.613Z,34.27
2018-12-16T08:00:15.080Z,31.30
2018-12-16T08:02:50.347Z,33.08
2018-12-16T08:05:25.984Z,34.48
2018-12-16T08:08:01.471Z,32.50
2018-12-16T08:10:36.975Z,35.17
2018-12-16T08:13:12.350Z,33.78
2018-12-16T08:15:47.751Z,29.07
2018-12-16T08:18:23.119Z,28.55
2018-12-16T08:20:58.422Z,34.63
2018-12-16T08:23:35.480Z,30.50
2018-12-16T08:26:11.258Z,34.98
2018-12-16T08:28:46.587Z,33.95
2018-12-16T08:31:22.097Z,27.32
2018-12-16T08:33:57.377Z,31.95
2018-12-16T08:36:32.667Z,34.98
2018-12-16T08:39:08.071Z,27.93
2018-12-16T08:41:45.467Z,29.02
2018-12-16T08:44:20.689Z,37.58
2018-12-16T08:46:56.076Z,28.77
2018-12-16T08:49:31.386Z,37.78
2018-12-16T08:52:06.782Z,32.80
2018-12-16T08:54:42.310Z,32.25
2018-12-16T08:57:17.734Z,33.40
2018-12-16T08:59:53.128Z,32.40
2018-12-16T09:02:28.618Z,29.92
2018-12-16T09:05:04.263Z,36.77
2018-12-16T09:07:40.894Z,32.35
2018-12-16T09:10:16.319Z,33.50
2018-12-16T09:12:51.621Z,32.70
2018-12-16T09:15:26.896Z,35.98
2018-12-16T09:18:02.304Z,36.83
2018-12-16T09:20:37.590Z,37.78
2018-12-16T09:23:13.206Z,32.25
2018-12-16T09:25:48.705Z,35.78
2018-12-16T09:28:24.094Z,31.77
2018-12-16T09:30:59.539Z,31.77
2018-12-16T09:33:35.153Z,36.28
2018-12-16T09:36:10.605Z,32.33
2018-12-16T09:38:45.962Z,33.78
2018-12-16T09:41:21.207Z,29.57
2018-12-16T09:43:56.468Z,33.55
2018-12-16T09:46:31.859Z,35.33
2018-12-16T09:49:07.286Z,35.88
2018-12-16T09:51:42.704Z,34.53
2018-12-16T09:54:18.122Z,30.48
2018-12-16T09:56:53.583Z,27.87
2018-12-16T09:59:29.020Z,28.95
2018-12-16T10:02:04.530Z,32.45
2018-12-16T10:04:40.007Z,38.02
2018-12-16T10:07:15.476Z,30.70
2018-12-16T10:09:50.837Z,32.45
2018-12-16T10:12:26.412Z,28.80
2018-12-16T10:15:01.824Z,27.85
2018-12-16T10:17:37.191Z,27.55
2018-12-16T10:20:13.003Z,27.30
2018-12-16T10:22:48.378Z,21.75
2018-12-16T10:25:23.761Z,22.52
2018-12-16T10:27:59.141Z,25.55
2018-12-16T10:30:34.619Z,25.43
2018-12-16T10:33:09.858Z,23.55
2018-12-16T10:35:45.225Z,23.38
2018-12-16T10:38:20.696Z,23.75
2018-12-16T10:40:56.238Z,16.77
2018-12-16T10:43:31.697Z,19.27
2018-12-16T10:46:07.148Z,21.50
2018-12-16T10:48:42.707Z,17.23
2018-12-16T10:51:18.190Z,19.65
2018-12-16T10:53:53.649Z,25.90
2018-12-16T10:56:28.937Z,22.48
2018-12-16T10:59:04.395Z,19.73
2018-12-16T11:01:39.636Z,22.50
2018-12-16T11:04:14.935Z,18.50
2018-12-16T11:06:50.226Z,25.50
2018-12-16T11:09:25.570Z,20.72
2018-12-16T11:12:01.021Z,20.45
2018-12-16T11:14:36.432Z,21.75
2018-12-16T11:17:11.782Z,26.30
2018-12-16T11:19:47.083Z,24.52
2018-12-16T11:22:22.862Z,19.57
2018-12-16T11:25:05.401Z,28.12
2018-12-16T11:27:35.830Z,22.90
2018-12-16T11:30:12.403Z,24.63
2018-12-16T11:32:48.474Z,21.75
2018-12-16T11:35:23.745Z,24.77
2018-12-16T11:37:59.791Z,24.60
2018-12-16T11:40:35.307Z,21.80
2018-12-16T11:43:10.738Z,23.62
2018-12-16T11:45:46.692Z,23.75
2018-12-16T11:48:22.055Z,17.90
2018-12-16T11:50:57.478Z,24.18
2018-12-16T11:53:33.291Z,19.90
2018-12-16T11:56:08.751Z,22.48
2018-12-16T11:58:44.202Z,18.98
2018-12-16T12:01:19.458Z,19.05
2018-12-16T12:03:54.875Z,23.67
2018-12-16T12:06:30.140Z,21.62
2018-12-16T12:09:06.118Z,22.20
2018-12-16T12:11:43.468Z,22.27
2018-12-16T12:14:18.990Z,23.67
2018-12-16T12:16:54.661Z,25.00
2018-12-16T12:19:38.915Z,24.63
2018-12-16T12:22:14.169Z,22.15
2018-12-16T12:24:49.650Z,21.87
2018-12-16T12:27:24.943Z,23.87
2018-12-16T12:30:00.238Z,21.55
2018-12-16T12:32:35.622Z,28.02
2018-12-16T12:35:10.961Z,21.40
2018-12-16T12:37:46.295Z,24.82
2018-12-16T12:40:21.793Z,19.65
2018-12-16T12:42:57.229Z,20.37
2018-12-16T12:45:32.563Z,25.08
2018-12-16T12:48:07.892Z,25.90
2018-12-16T12:50:43.423Z,24.02
2018-12-16T12:53:18.707Z,20.57
2018-12-16T12:55:54.133Z,23.67
2018-12-16T12:58:29.544Z,27.42
2018-12-16T13:01:05.222Z,24.52
2018-12-16T13:03:40.939Z,21.70
2018-12-16T13:06:16.771Z,24.77
2018-12-16T13:08:52.135Z,25.35
2018-12-16T13:11:27.427Z,23.95
2018-12-16T13:14:02.702Z,25.05
2018-12-16T13:16:38.170Z,26.55
2018-12-16T13:19:13.602Z,25.68
2018-12-16T13:21:49.091Z,22.67
2018-12-16T13:24:24.760Z,23.47
2018-12-16T13:27:00.190Z,23.30
2018-12-16T13:29:35.651Z,23.40
2018-12-16T13:32:10.918Z,23.50
2018-12-16T13:34:46.372Z,21.87
2018-12-16T13:37:21.722Z,30.35
2018-12-16T13:39:57.057Z,22.32
2018-12-16T13:42:32.894Z,24.30
2018-12-16T13:45:08.696Z,25.40
2018-12-16T13:47:44.228Z,26.97
2018-12-16T13:50:19.753Z,31.12
2018-12-16T13:52:55.174Z,25.17
2018-12-16T13:55:30.576Z,25.08
2018-12-16T13:58:05.942Z,26.35
2018-12-16T14:00:41.614Z,23.27
2018-12-16T14:03:17.067Z,28.10
2018-12-16T14:05:52.471Z,22.82
2018-12-16T14:08:27.835Z,25.43
2018-12-16T14:11:03.339Z,28.45
2018-12-16T14:13:38.645Z,27.02
2018-12-16T14:16:14.078Z,25.95
2018-12-16T14:18:49.560Z,27.65
2018-12-16T14:21:25.029Z,25.65
2018-12-16T14:24:00.516Z,29.52
2018-12-16T14:26:36.103Z,29.90
2018-12-16T14:29:11.432Z,25.88
2018-12-16T14:31:47.067Z,26.97
2018-12-16T14:34:23.354Z,25.15
2018-12-16T14:37:00.019Z,26.73
2018-12-16T14:39:36.215Z,26.75
2018-12-16T14:42:12.409Z,25.23
2018-12-16T14:44:48.026Z,26.35
2018-12-16T14:47:23.346Z,24.02
2018-12-16T14:49:58.715Z,25.68
2018-12-16T14:52:34.085Z,33.83
2018-12-16T14:55:09.607Z,30.00
2018-12-16T14:57:44.843Z,25.05
2018-12-16T15:00:20.375Z,29.52
2018-12-16T15:02:56.855Z,24.85
2018-12-16T15:05:33.367Z,24.15
2018-12-16T15:08:09.484Z,27.32
2018-12-16T15:10:45.682Z,23.60
2018-12-16T15:13:21.552Z,26.57
2018-12-16T15:15:56.907Z,28.47
2018-12-16T15:18:32.311Z,24.18
2018-12-16T15:21:07.688Z,32.03
2018-12-16T15:23:43.084Z,28.10
2018-12-16T15:26:18.423Z,25.97
2018-12-16T15:28:54.567Z,23.87
2018-12-16T15:31:31.814Z,29.10
2018-12-16T15:34:08.384Z,29.07
2018-12-16T15:36:43.936Z,34.65
2018-12-16T15:39:19.295Z,26.45
2018-12-16T15:41:54.635Z,27.80
2018-12-16T15:44:30.003Z,29.57
2018-12-16T15:47:05.358Z,24.75
2018-12-16T15:49:40.850Z,26.85
2018-12-16T15:52:16.291Z,31.73
2018-12-16T15:54:51.974Z,24.05
2018-12-16T15:57:28.410Z,26.65
2018-12-16T16:00:05.782Z,25.23
2018-12-16T16:02:42.221Z,25.95
2018-12-16T16:05:17.770Z,25.40
2018-12-16T16:07:53.422Z,25.50
2018-12-16T16:10:28.772Z,25.17
2018-12-16T16:13:04.084Z,26.85
2018-12-16T16:15:39.689Z,31.93
2018-12-16T16:18:15.034Z,34.75
2018-12-16T16:20:50.462Z,26.97
2018-12-16T16:23:25.923Z,27.27
2018-12-16T16:26:01.301Z,30.00
2018-12-16T16:28:36.924Z,33.33
2018-12-16T16:31:12.403Z,33.08
2018-12-16T16:33:47.851Z,28.05
2018-12-16T16:36:23.167Z,32.30
2018-12-16T16:38:58.615Z,28.45
2018-12-16T16:41:34.531Z,25.45
2018-12-16T16:44:09.927Z,26.45
2018-12-16T16:46:45.180Z,28.73
2018-12-16T16:49:20.829Z,30.43
2018-12-16T16:51:57.326Z,29.07
2018-12-16T16:54:33.629Z,31.40
2018-12-16T16:57:09.933Z,28.73
2018-12-16T16:59:46.050Z,33.67
2018-12-16T17:02:22.083Z,31.25
2018-12-16T17:04:57.360Z,25.92
2018-12-16T17:07:32.687Z,30.25
2018-12-16T17:10:08.663Z,30.02
2018-12-16T17:12:44.043Z,30.48
2018-12-16T17:15:19.413Z,30.65
2018-12-16T17:17:55.164Z,32.63
2018-12-16T17:20:30.751Z,32.90
2018-12-16T17:23:06.194Z,26.75
2018-12-16T17:25:48.045Z,32.28
2018-12-16T17:28:19.371Z,27.10
2018-12-16T17:30:54.770Z,30.95
2018-12-16T17:33:30.592Z,30.82
2018-12-16T17:36:06.335Z,30.88
2018-12-16T17:38:41.763Z,29.63
2018-12-16T17:41:18.035Z,23.92
2018-12-16T17:43:54.701Z,24.75
2018-12-16T17:46:31.085Z,30.37
2018-12-16T17:49:07.508Z,28.73
2018-12-16T17:51:43.700Z,26.77
2018-12-16T17:54:19.965Z,31.57
2018-12-16T17:56:56.684Z,29.07
2018-12-16T17:59:33.378Z,25.37
2018-12-16T18:02:12.246Z,31.20
2018-12-16T18:04:48.224Z,25.65
2018-12-16T18:07:23.680Z,27.87
2018-12-16T18:09:59.295Z,29.82
2018-12-16T18:12:34.845Z,30.37
2018-12-16T18:15:10.553Z,31.35
2018-12-16T18:17:46.256Z,33.63
2018-12-16T18:20:21.713Z,25.05
2018-12-16T18:22:57.218Z,30.62
2018-12-16T18:25:32.730Z,30.55
2018-12-16T18:28:08.330Z,26.40
2018-12-16T18:30:43.811Z,36.40
2018-12-16T18:33:19.383Z,30.12
2018-12-16T18:35:54.805Z,32.55
2018-12-16T18:38:30.243Z,33.78
2018-12-16T18:41:05.653Z,31.75
2018-12-16T18:43:41.110Z,30.35
2018-12-16T18:46:16.691Z,37.25
2018-12-16T18:48:52.039Z,33.60
2018-12-16T18:51:27.463Z,30.68
2018-12-16T18:54:03.042Z,34.85
2018-12-16T18:56:38.450Z,33.75
2018-12-16T18:59:13.870Z,38.92
2018-12-16T19:01:49.311Z,31.12
2018-12-16T19:04:24.748Z,37.67
2018-12-16T19:07:00.405Z,36.10
2018-12-16T19:09:35.803Z,32.48
2018-12-16T19:12:11.290Z,39.85
2018-12-16T19:14:47.389Z,34.58
2018-12-16T19:17:22.798Z,31.80
2018-12-16T19:19:58.214Z,31.12
2018-12-16T19:22:33.763Z,36.60
2018-12-16T19:25:10.183Z,38.05
2018-12-16T19:27:45.774Z,35.98
2018-12-16T19:30:21.326Z,35.45
2018-12-16T19:32:57.583Z,36.65
2018-12-16T19:35:33.117Z,32.70
2018-12-16T19:38:08.462Z,30.92
2018-12-16T19:40:44.070Z,33.98
2018-12-16T19:43:19.655Z,34.55
2018-12-16T19:45:55.340Z,39.35
2018-12-16T19:48:30.922Z,40.20
2018-12-16T19:51:06.292Z,32.95
2018-12-16T19:53:41.891Z,35.48
2018-12-16T19:56:17.332Z,32.08
2018-12-16T19:58:53.136Z,35.90
2018-12-16T20:01:28.643Z,34.23
2018-12-16T20:04:09.810Z,34.63
2018-12-16T20:06:47.804Z,38.63
2018-12-16T20:09:24.490Z,35.63
2018-12-16T20:12:00.682Z,38.80
2018-12-16T20:14:36.592Z,38.28
2018-12-16T20:17:12.095Z,36.93
2018-12-16T20:19:47.545Z,36.40
2018-12-16T20:22:22.863Z,35.52
2018-12-16T20:24:58.235Z,33.10
2018-12-16T20:27:33.691Z,37.58
2018-12-16T20:30:09.818Z,31.93
2018-12-16T20:32:45.651Z,41.88
2018-12-16T20:35:21.351Z,37.38
2018-12-16T20:37:56.953Z,34.43
2018-12-16T20:40:32.792Z,40.35
2018-12-16T20:43:08.622Z,32.98
2018-12-16T20:45:44.079Z,33.98
2018-12-16T20:48:19.478Z,36.93
2018-12-16T20:50:55.055Z,32.95
2018-12-16T20:53:30.509Z,38.73
2018-12-16T20:56:05.991Z,43.98
2018-12-16T20:58:41.782Z,33.20
2018-12-16T21:01:17.186Z,37.90
2018-12-16T21:03:52.703Z,36.85
2018-12-16T21:06:28.219Z,39.05
2018-12-16T21:09:04.411Z,41.63
2018-12-16T21:11:47.298Z,38.20
2018-12-16T21:14:27.964Z,32.00
2018-12-16T21:17:08.647Z,36.35
2018-12-16T21:19:44.816Z,37.88
2018-12-16T21:22:20.471Z,39.10
2018-12-16T21:24:56.027Z,31.17
2018-12-16T21:27:31.732Z,36.83
2018-12-16T21:30:08.098Z,38.50
2018-12-16T21:32:43.830Z,35.45
2018-12-16T21:35:20.164Z,35.15
2018-12-16T21:37:55.903Z,35.73
2018-12-16T21:40:31.450Z,39.03
2018-12-16T21:43:06.971Z,40.98
2018-12-16T21:45:43.244Z,36.42
2018-12-16T21:48:19.480Z,36.73
2018-12-16T21:50:55.819Z,41.35
2018-12-16T21:53:32.287Z,36.73
2018-12-16T21:56:08.063Z,32.75
2018-12-16T21:58:43.728Z,38.25
2018-12-16T22:01:19.035Z,34.73
2018-12-16T22:03:54.433Z,34.25
2018-12-16T22:06:29.819Z,40.23
2018-12-16T22:09:07.646Z,35.17
2018-12-16T22:11:45.161Z,41.70
2018-12-16T22:14:20.652Z,38.05
2018-12-16T22:16:56.098Z,39.08
2018-12-16T22:19:31.497Z,34.50
2018-12-16T22:22:08.086Z,40.20
2018-12-16T22:24:43.454Z,41.18
2018-12-16T22:27:18.804Z,37.30
2018-12-16T22:29:54.280Z,39.50
2018-12-16T22:32:29.728Z,35.75
2018-12-16T22:35:05.512Z,34.83
2018-12-16T22:37:41.878Z,35.03
2018-12-16T22:40:17.231Z,35.15
2018-12-16T22:42:52.626Z,36.80
2018-12-16T22:45:27.996Z,36.65
2018-12-16T22:48:04.349Z,34.00
2018-12-16T22:50:39.925Z,37.13
2018-12-16T22:54:53.098Z,35.17
2018-12-16T22:57:29.120Z,36.30
2018-12-16T23:00:08.554Z,37.10
2018-12-16T23:02:46.149Z,39.08
2018-12-16T23:05:21.467Z,32.55
2018-12-16T23:07:57.009Z,34.80
2018-12-16T23:10:32.367Z,35.23
2018-12-16T23:13:08.057Z,33.48
2018-12-16T23:15:43.348Z,33.80
2018-12-16T23:18:18.806Z,34.27
2018-12-16T23:20:54.295Z,31.77
2018-12-16T23:23:29.815Z,36.58
2018-12-16T23:26:05.291Z,35.43
2018-12-16T23:28:40.876Z,34.53
2018-12-16T23:31:17.338Z,41.88
2018-12-16T23:33:52.643Z,39.65
2018-12-16T23:36:28.159Z,36.85
2018-12-16T23:39:04.215Z,35.35
2018-12-16T23:41:41.856Z,35.05
2018-12-16T23:44:17.396Z,40.10
2018-12-16T23:46:53.290Z,34.33
2018-12-16T23:49:29.511Z,36.83
2018-12-16T23:52:06.074Z,32.40
2018-12-16T23:54:41.608Z,33.40
2018-12-16T23:57:17.167Z,32.30
2018-12-16T23:59:52.919Z,34.73
